sensor_id;sensor_type;location;lat;lon;timestamp;pressure;altitude;pressure_sealevel;temperature;humidity
29371;BME280;16357;52.188;7.838;2023-07-24T00:00:32;99788.91;;;21.62;66.12
29371;BME280;16357;52.188;7.838;2023-07-24T00:03:03;99789.16;;;21.61;66.03
29371;BME280;16357;52.188;7.838;2023-07-24T00:05:29;99789.66;;;21.58;66.18
29371;BME280;16357;52.188;7.838;2023-07-24T00:07:56;99788.25;;;21.55;66.07
29371;BME280;16357;52.188;7.838;2023-07-24T00:10:23;99785.22;;;21.52;65.87
29371;BME280;16357;52.188;7.838;2023-07-24T00:13:07;99788.69;;;21.47;66.24
29371;BME280;16357;52.188;7.838;2023-07-24T00:15:35;99781.25;;;21.42;66.50
29371;BME280;16357;52.188;7.838;2023-07-24T00:18:04;99782.59;;;21.40;66.38
29371;BME280;16357;52.188;7.838;2023-07-24T00:20:40;99785.78;;;21.37;66.83
29371;BME280;16357;52.188;7.838;2023-07-24T00:23:16;99777.84;;;21.35;66.90
29371;BME280;16357;52.188;7.838;2023-07-24T00:25:50;99780.56;;;21.35;66.97
29371;BME280;16357;52.188;7.838;2023-07-24T00:28:18;99776.22;;;21.34;67.41
29371;BME280;16357;52.188;7.838;2023-07-24T00:30:51;99775.97;;;21.36;67.14
29371;BME280;16357;52.188;7.838;2023-07-24T00:33:24;99776.78;;;21.36;67.53
29371;BME280;16357;52.188;7.838;2023-07-24T00:35:59;99766.50;;;21.38;67.67
29371;BME280;16357;52.188;7.838;2023-07-24T00:38:32;99761.34;;;21.42;67.17
29371;BME280;16357;52.188;7.838;2023-07-24T00:41:02;99762.97;;;21.43;67.79
29371;BME280;16357;52.188;7.838;2023-07-24T00:43:30;99751.81;;;21.44;67.62
29371;BME280;16357;52.188;7.838;2023-07-24T00:46:03;99755.13;;;21.46;67.64
29371;BME280;16357;52.188;7.838;2023-07-24T00:48:33;99755.72;;;21.48;67.53
29371;BME280;16357;52.188;7.838;2023-07-24T00:51:06;99757.94;;;21.52;67.39
29371;BME280;16357;52.188;7.838;2023-07-24T00:53:43;99757.66;;;21.53;67.78
29371;BME280;16357;52.188;7.838;2023-07-24T00:56:13;99756.34;;;21.56;67.97
29371;BME280;16357;52.188;7.838;2023-07-24T00:58:44;99741.63;;;21.57;67.94
29371;BME280;16357;52.188;7.838;2023-07-24T01:01:12;99751.44;;;21.58;67.59
29371;BME280;16357;52.188;7.838;2023-07-24T01:03:39;99753.94;;;21.59;67.45
29371;BME280;16357;52.188;7.838;2023-07-24T01:06:06;99740.28;;;21.59;67.65
29371;BME280;16357;52.188;7.838;2023-07-24T01:08:32;99742.75;;;21.61;67.54
29371;BME280;16357;52.188;7.838;2023-07-24T01:11:03;99746.31;;;21.61;67.26
29371;BME280;16357;52.188;7.838;2023-07-24T01:13:36;99738.97;;;21.62;67.13
29371;BME280;16357;52.188;7.838;2023-07-24T01:16:18;99741.69;;;21.62;67.42
29371;BME280;16357;52.188;7.838;2023-07-24T01:18:45;99740.84;;;21.61;67.83
29371;BME280;16357;52.188;7.838;2023-07-24T01:21:33;99737.88;;;21.63;67.58
29371;BME280;16357;52.188;7.838;2023-07-24T01:24:41;99731.31;;;21.64;67.20
29371;BME280;16357;52.188;7.838;2023-07-24T01:27:23;99719.84;;;21.62;66.87
29371;BME280;16357;52.188;7.838;2023-07-24T01:29:50;99720.91;;;21.61;67.44
29371;BME280;16357;52.188;7.838;2023-07-24T01:32:22;99724.75;;;21.60;67.37
29371;BME280;16357;52.188;7.838;2023-07-24T01:34:59;99720.91;;;21.61;67.20
29371;BME280;16357;52.188;7.838;2023-07-24T01:37:34;99714.88;;;21.59;67.25
29371;BME280;16357;52.188;7.838;2023-07-24T01:40:18;99718.69;;;21.58;67.47
29371;BME280;16357;52.188;7.838;2023-07-24T01:42:46;99718.94;;;21.56;67.31
29371;BME280;16357;52.188;7.838;2023-07-24T01:45:16;99713.47;;;21.56;67.43
29371;BME280;16357;52.188;7.838;2023-07-24T01:47:43;99715.41;;;21.56;67.44
29371;BME280;16357;52.188;7.838;2023-07-24T01:50:15;99715.41;;;21.56;67.41
29371;BME280;16357;52.188;7.838;2023-07-24T01:52:49;99715.41;;;21.56;67.38
29371;BME280;16357;52.188;7.838;2023-07-24T01:55:20;99720.28;;;21.54;67.48
29371;BME280;16357;52.188;7.838;2023-07-24T01:57:51;99706.09;;;21.52;67.73
29371;BME280;16357;52.188;7.838;2023-07-24T02:00:22;99705.22;;;21.51;67.67
29371;BME280;16357;52.188;7.838;2023-07-24T02:02:52;99701.13;;;21.48;67.69
29371;BME280;16357;52.188;7.838;2023-07-24T02:05:22;99696.75;;;21.47;67.42
29371;BME280;16357;52.188;7.838;2023-07-24T02:07:56;99711.47;;;21.46;67.78
29371;BME280;16357;52.188;7.838;2023-07-24T02:10:31;99696.44;;;21.44;67.77
29371;BME280;16357;52.188;7.838;2023-07-24T02:13:01;99696.44;;;21.44;67.82
29371;BME280;16357;52.188;7.838;2023-07-24T02:15:35;99693.13;;;21.42;67.61
29371;BME280;16357;52.188;7.838;2023-07-24T02:18:07;99700.50;;;21.41;67.89
29371;BME280;16357;52.188;7.838;2023-07-24T02:20:49;99693.94;;;21.42;67.80
29371;BME280;16357;52.188;7.838;2023-07-24T02:23:15;99683.31;;;21.41;67.84
29371;BME280;16357;52.188;7.838;2023-07-24T02:25:42;99687.91;;;21.40;68.15
29371;BME280;16357;52.188;7.838;2023-07-24T02:28:16;99682.44;;;21.40;67.50
29371;BME280;16357;52.188;7.838;2023-07-24T02:31:00;99676.16;;;21.40;67.56
29371;BME280;16357;52.188;7.838;2023-07-24T02:33:36;99678.16;;;21.44;67.17
29371;BME280;16357;52.188;7.838;2023-07-24T02:36:06;99676.75;;;21.42;67.55
29371;BME280;16357;52.188;7.838;2023-07-24T02:38:38;99667.16;;;21.39;67.16
29371;BME280;16357;52.188;7.838;2023-07-24T02:41:04;99662.81;;;21.38;67.48
29371;BME280;16357;52.188;7.838;2023-07-24T02:43:34;99660.28;;;21.37;67.48
29371;BME280;16357;52.188;7.838;2023-07-24T02:46:03;99655.66;;;21.37;67.44
29371;BME280;16357;52.188;7.838;2023-07-24T02:48:33;99658.66;;;21.36;67.53
29371;BME280;16357;52.188;7.838;2023-07-24T02:51:08;99654.00;;;21.36;67.17
29371;BME280;16357;52.188;7.838;2023-07-24T02:53:41;99656.16;;;21.34;67.32
29371;BME280;16357;52.188;7.838;2023-07-24T02:56:12;99655.34;;;21.34;67.18
29371;BME280;16357;52.188;7.838;2023-07-24T02:58:39;99652.84;;;21.32;67.26
29371;BME280;16357;52.188;7.838;2023-07-24T03:01:14;99656.66;;;21.31;67.63
29371;BME280;16357;52.188;7.838;2023-07-24T03:06:15;99664.28;;;21.29;67.44
29371;BME280;16357;52.188;7.838;2023-07-24T03:08:41;99656.09;;;21.29;67.55
29371;BME280;16357;52.188;7.838;2023-07-24T03:11:08;99653.38;;;21.29;67.40
29371;BME280;16357;52.188;7.838;2023-07-24T03:13:34;99647.91;;;21.29;67.38
29371;BME280;16357;52.188;7.838;2023-07-24T03:16:01;99654.19;;;21.30;67.64
29371;BME280;16357;52.188;7.838;2023-07-24T03:18:28;99652.84;;;21.32;67.65
29371;BME280;16357;52.188;7.838;2023-07-24T03:20:57;99654.53;;;21.33;67.45
29371;BME280;16357;52.188;7.838;2023-07-24T03:23:23;99655.34;;;21.34;67.16
29371;BME280;16357;52.188;7.838;2023-07-24T03:25:50;99649.06;;;21.33;67.53
29371;BME280;16357;52.188;7.838;2023-07-24T03:28:16;99650.94;;;21.33;67.19
29371;BME280;16357;52.188;7.838;2023-07-24T03:30:43;99643.84;;;21.32;67.37
29371;BME280;16357;52.188;7.838;2023-07-24T03:33:09;99651.22;;;21.31;67.33
29371;BME280;16357;52.188;7.838;2023-07-24T03:35:38;99646.00;;;21.30;67.28
29371;BME280;16357;52.188;7.838;2023-07-24T03:38:05;99642.44;;;21.29;67.35
29371;BME280;16357;52.188;7.838;2023-07-24T03:40:32;99635.34;;;21.28;67.56
29371;BME280;16357;52.188;7.838;2023-07-24T03:42:58;99627.19;;;21.28;67.36
29371;BME280;16357;52.188;7.838;2023-07-24T03:45:25;99622.78;;;21.27;67.38
29371;BME280;16357;52.188;7.838;2023-07-24T03:47:51;99618.19;;;21.27;67.41
29371;BME280;16357;52.188;7.838;2023-07-24T03:50:17;99616.25;;;21.28;67.67
29371;BME280;16357;52.188;7.838;2023-07-24T03:52:44;99608.91;;;21.29;67.75
29371;BME280;16357;52.188;7.838;2023-07-24T03:55:10;99610.53;;;21.30;67.35
29371;BME280;16357;52.188;7.838;2023-07-24T03:57:37;99600.47;;;21.30;67.33
29371;BME280;16357;52.188;7.838;2023-07-24T04:00:04;99598.81;;;21.29;67.07
29371;BME280;16357;52.188;7.838;2023-07-24T04:02:31;99593.94;;;21.31;67.31
29371;BME280;16357;52.188;7.838;2023-07-24T04:04:57;99585.75;;;21.31;67.21
29371;BME280;16357;52.188;7.838;2023-07-24T04:07:24;99582.19;;;21.31;66.92
29371;BME280;16357;52.188;7.838;2023-07-24T04:09:50;99574.81;;;21.31;67.20
29371;BME280;16357;52.188;7.838;2023-07-24T04:12:17;99570.19;;;21.32;66.75
29371;BME280;16357;52.188;7.838;2023-07-24T04:14:43;99563.91;;;21.31;66.98
29371;BME280;16357;52.188;7.838;2023-07-24T04:17:09;99563.91;;;21.31;67.18
29371;BME280;16357;52.188;7.838;2023-07-24T04:19:36;99564.72;;;21.32;67.04
29371;BME280;16357;52.188;7.838;2023-07-24T04:22:02;99562.81;;;21.32;67.05
29371;BME280;16357;52.188;7.838;2023-07-24T04:24:29;99557.38;;;21.32;66.89
29371;BME280;16357;52.188;7.838;2023-07-24T04:26:55;99568.03;;;21.34;67.06
29371;BME280;16357;52.188;7.838;2023-07-24T04:29:22;99570.50;;;21.35;67.07
29371;BME280;16357;52.188;7.838;2023-07-24T04:31:50;99565.88;;;21.36;67.32
29371;BME280;16357;52.188;7.838;2023-07-24T04:34:17;99562.06;;;21.37;67.37
29371;BME280;16357;52.188;7.838;2023-07-24T04:36:43;99575.50;;;21.38;67.04
29371;BME280;16357;52.188;7.838;2023-07-24T04:39:10;99581.75;;;21.39;67.25
29371;BME280;16357;52.188;7.838;2023-07-24T04:41:36;99578.75;;;21.40;67.31
29371;BME280;16357;52.188;7.838;2023-07-24T04:44:03;99571.16;;;21.42;67.31
29371;BME280;16357;52.188;7.838;2023-07-24T04:46:29;99568.44;;;21.42;67.23
29371;BME280;16357;52.188;7.838;2023-07-24T04:48:56;99574.69;;;21.43;67.23
29371;BME280;16357;52.188;7.838;2023-07-24T04:51:23;99579.34;;;21.42;67.08
29371;BME280;16357;52.188;7.838;2023-07-24T04:53:49;99574.69;;;21.43;66.96
29371;BME280;16357;52.188;7.838;2023-07-24T04:56:16;99570.34;;;21.42;67.00
29371;BME280;16357;52.188;7.838;2023-07-24T04:58:42;99579.34;;;21.42;66.71
29371;BME280;16357;52.188;7.838;2023-07-24T05:01:09;99579.63;;;21.41;67.23
29371;BME280;16357;52.188;7.838;2023-07-24T05:03:35;99575.50;;;21.38;67.02
29371;BME280;16357;52.188;7.838;2023-07-24T05:06:02;99556.41;;;21.38;67.24
29371;BME280;16357;52.188;7.838;2023-07-24T05:08:29;99547.84;;;21.35;67.78
29371;BME280;16357;52.188;7.838;2023-07-24T05:10:56;99547.84;;;21.35;67.32
29371;BME280;16357;52.188;7.838;2023-07-24T05:13:22;99555.72;;;21.31;67.48
29371;BME280;16357;52.188;7.838;2023-07-24T05:15:49;99555.16;;;21.29;67.52
29371;BME280;16357;52.188;7.838;2023-07-24T05:18:15;99561.69;;;21.28;67.66
29371;BME280;16357;52.188;7.838;2023-07-24T05:20:44;99562.75;;;21.27;67.88
29371;BME280;16357;52.188;7.838;2023-07-24T05:23:11;99563.84;;;21.26;68.16
29371;BME280;16357;52.188;7.838;2023-07-24T05:25:38;99567.69;;;21.25;68.21
29371;BME280;16357;52.188;7.838;2023-07-24T05:28:04;99567.91;;;21.23;68.10
29371;BME280;16357;52.188;7.838;2023-07-24T05:30:31;99583.47;;;21.23;67.74
29371;BME280;16357;52.188;7.838;2023-07-24T05:32:57;99583.13;;;21.19;67.86
29371;BME280;16357;52.188;7.838;2023-07-24T05:35:23;99575.22;;;21.18;68.57
29371;BME280;16357;52.188;7.838;2023-07-24T05:37:50;99581.75;;;21.17;68.28
29371;BME280;16357;52.188;7.838;2023-07-24T05:40:16;99571.91;;;21.16;68.77
29371;BME280;16357;52.188;7.838;2023-07-24T05:42:43;99562.34;;;21.13;68.48
29371;BME280;16357;52.188;7.838;2023-07-24T05:45:10;99572.44;;;21.13;68.59
29371;BME280;16357;52.188;7.838;2023-07-24T05:47:41;99569.13;;;21.11;68.71
29371;BME280;16357;52.188;7.838;2023-07-24T05:50:08;99565.34;;;21.12;68.91
29371;BME280;16357;52.188;7.838;2023-07-24T05:52:34;99563.69;;;21.11;69.32
29371;BME280;16357;52.188;7.838;2023-07-24T05:55:01;99565.34;;;21.12;69.05
29371;BME280;16357;52.188;7.838;2023-07-24T05:57:27;99575.16;;;21.13;69.22
29371;BME280;16357;52.188;7.838;2023-07-24T05:59:54;99563.97;;;21.14;69.38
29371;BME280;16357;52.188;7.838;2023-07-24T06:02:21;99564.81;;;21.15;69.65
29371;BME280;16357;52.188;7.838;2023-07-24T06:04:47;99560.50;;;21.19;69.48
29371;BME280;16357;52.188;7.838;2023-07-24T06:07:14;99564.88;;;21.20;69.13
29371;BME280;16357;52.188;7.838;2023-07-24T06:09:40;99561.66;;;21.23;69.32
29371;BME280;16357;52.188;7.838;2023-07-24T06:12:07;99556.75;;;21.25;69.24
29371;BME280;16357;52.188;7.838;2023-07-24T06:14:33;99574.53;;;21.27;69.58
29371;BME280;16357;52.188;7.838;2023-07-24T06:17:00;99569.38;;;21.31;69.68
29371;BME280;16357;52.188;7.838;2023-07-24T06:19:26;99572.69;;;21.33;70.06
29371;BME280;16357;52.188;7.838;2023-07-24T06:21:53;99576.53;;;21.37;69.91
29371;BME280;16357;52.188;7.838;2023-07-24T06:24:19;99578.53;;;21.42;69.96
29371;BME280;16357;52.188;7.838;2023-07-24T06:26:47;99577.47;;;21.48;69.90
29371;BME280;16357;52.188;7.838;2023-07-24T06:29:13;99578.63;;;21.52;69.77
29371;BME280;16357;52.188;7.838;2023-07-24T06:31:41;99575.97;;;21.57;69.76
29371;BME280;16357;52.188;7.838;2023-07-24T06:34:07;99570.22;;;21.59;69.54
29371;BME280;16357;52.188;7.838;2023-07-24T06:36:34;99573.53;;;21.61;69.07
29371;BME280;16357;52.188;7.838;2023-07-24T06:39:01;99578.47;;;21.64;69.29
29371;BME280;16357;52.188;7.838;2023-07-24T06:41:27;99578.47;;;21.64;68.83
29371;BME280;16357;52.188;7.838;2023-07-24T06:43:54;99580.13;;;21.65;69.12
29371;BME280;16357;52.188;7.838;2023-07-24T06:46:20;99577.13;;;21.66;69.13
29371;BME280;16357;52.188;7.838;2023-07-24T06:48:47;99583.44;;;21.67;68.95
29371;BME280;16357;52.188;7.838;2023-07-24T06:51:13;99579.59;;;21.68;69.10
29371;BME280;16357;52.188;7.838;2023-07-24T06:53:40;99591.34;;;21.68;68.77
29371;BME280;16357;52.188;7.838;2023-07-24T06:56:06;99589.44;;;21.69;68.81
29371;BME280;16357;52.188;7.838;2023-07-24T06:58:33;99586.69;;;21.69;68.62
29371;BME280;16357;52.188;7.838;2023-07-24T07:00:59;99585.88;;;21.68;68.81
29371;BME280;16357;52.188;7.838;2023-07-24T07:03:26;99585.06;;;21.68;68.52
29371;BME280;16357;52.188;7.838;2023-07-24T07:05:58;99579.59;;;21.68;68.76
29371;BME280;16357;52.188;7.838;2023-07-24T07:08:25;99576.88;;;21.68;69.59
29371;BME280;16357;52.188;7.838;2023-07-24T07:10:56;99584.53;;;21.71;69.18
29371;BME280;16357;52.188;7.838;2023-07-24T07:13:23;99582.38;;;21.73;69.81
29371;BME280;16357;52.188;7.838;2023-07-24T07:15:50;99578.63;;;21.79;69.76
29371;BME280;16357;52.188;7.838;2023-07-24T07:18:16;99579.22;;;21.86;69.89
29371;BME280;16357;52.188;7.838;2023-07-24T07:23:14;99573.09;;;22.06;69.93
29371;BME280;16357;52.188;7.838;2023-07-24T07:25:41;99583.88;;;22.18;69.72
29371;BME280;16357;52.188;7.838;2023-07-24T07:28:09;99584.53;;;22.30;69.22
29371;BME280;16357;52.188;7.838;2023-07-24T07:30:35;99579.13;;;22.41;68.66
29371;BME280;16357;52.188;7.838;2023-07-24T07:33:04;99574.00;;;22.49;68.73
29371;BME280;16357;52.188;7.838;2023-07-24T07:35:35;99575.16;;;22.58;68.02
29371;BME280;16357;52.188;7.838;2023-07-24T07:38:02;99573.00;;;22.66;68.56
29371;BME280;16357;52.188;7.838;2023-07-24T07:40:29;99585.34;;;22.73;67.12
29371;BME280;16357;52.188;7.838;2023-07-24T07:42:56;99576.38;;;22.78;66.36
29371;BME280;16357;52.188;7.838;2023-07-24T07:45:24;99580.19;;;22.82;66.03
29371;BME280;16357;52.188;7.838;2023-07-24T07:47:50;99574.47;;;22.84;65.97
29371;BME280;16357;52.188;7.838;2023-07-24T07:50:19;99568.19;;;22.83;65.94
29371;BME280;16357;52.188;7.838;2023-07-24T07:52:49;99578.28;;;22.83;65.82
29371;BME280;16357;52.188;7.838;2023-07-24T07:55:16;99578.00;;;22.79;65.78
29371;BME280;16357;52.188;7.838;2023-07-24T07:57:42;99573.88;;;22.76;66.02
29371;BME280;16357;52.188;7.838;2023-07-24T08:00:09;99576.06;;;22.74;66.15
29371;BME280;16357;52.188;7.838;2023-07-24T08:02:36;99579.88;;;22.73;66.45
29371;BME280;16357;52.188;7.838;2023-07-24T08:05:09;99581.28;;;22.76;66.29
29371;BME280;16357;52.188;7.838;2023-07-24T08:08:09;99590.84;;;22.78;66.32
29371;BME280;16357;52.188;7.838;2023-07-24T08:10:39;99585.38;;;22.78;65.62
29371;BME280;16357;52.188;7.838;2023-07-24T08:13:06;99584.81;;;22.76;65.52
29371;BME280;16357;52.188;7.838;2023-07-24T08:16:12;99588.13;;;22.78;64.88
29371;BME280;16357;52.188;7.838;2023-07-24T08:19:10;99581.00;;;22.77;64.99
29371;BME280;16357;52.188;7.838;2023-07-24T08:21:37;99582.09;;;22.76;64.63
29371;BME280;16357;52.188;7.838;2023-07-24T08:26:33;99583.19;;;22.75;64.81
29371;BME280;16357;52.188;7.838;2023-07-24T08:28:59;99590.56;;;22.75;65.14
29371;BME280;16357;52.188;7.838;2023-07-24T08:31:26;99596.56;;;22.77;64.83
29371;BME280;16357;52.188;7.838;2023-07-24T08:33:53;99594.41;;;22.79;64.52
29371;BME280;16357;52.188;7.838;2023-07-24T08:36:28;99588.69;;;22.81;63.66
29371;BME280;16357;52.188;7.838;2023-07-24T08:39:07;99596.88;;;22.81;62.88
29371;BME280;16357;52.188;7.838;2023-07-24T08:41:34;99599.06;;;22.78;63.38
29371;BME280;16357;52.188;7.838;2023-07-24T08:44:01;99603.16;;;22.76;62.78
29371;BME280;16357;52.188;7.838;2023-07-24T08:46:28;99579.31;;;22.71;62.08
29371;BME280;16357;52.188;7.838;2023-07-24T08:48:55;99584.50;;;22.68;62.61
29371;BME280;16357;52.188;7.838;2023-07-24T08:51:22;99578.72;;;22.64;62.98
29371;BME280;16357;52.188;7.838;2023-07-24T08:53:49;99580.66;;;22.64;62.90
29371;BME280;16357;52.188;7.838;2023-07-24T08:56:16;99583.13;;;22.65;63.69
29371;BME280;16357;52.188;7.838;2023-07-24T08:58:43;99578.75;;;22.69;64.11
29371;BME280;16357;52.188;7.838;2023-07-24T09:01:09;99576.63;;;22.76;63.52
29371;BME280;16357;52.188;7.838;2023-07-24T09:03:36;99575.84;;;22.86;63.36
29371;BME280;16357;52.188;7.838;2023-07-24T09:06:03;99566.84;;;22.96;63.19
29371;BME280;16357;52.188;7.838;2023-07-24T09:08:40;99574.31;;;23.06;62.14
29371;BME280;16357;52.188;7.838;2023-07-24T09:11:08;99566.97;;;23.16;62.86
29371;BME280;16357;52.188;7.838;2023-07-24T09:13:37;99571.91;;;23.25;62.13
29371;BME280;16357;52.188;7.838;2023-07-24T09:16:04;99563.75;;;23.35;61.52
29371;BME280;16357;52.188;7.838;2023-07-24T09:18:43;99572.53;;;23.47;61.41
29371;BME280;16357;52.188;7.838;2023-07-24T09:21:10;99575.31;;;23.57;61.29
29371;BME280;16357;52.188;7.838;2023-07-24T09:23:39;99572.59;;;23.67;60.02
29371;BME280;16357;52.188;7.838;2023-07-24T09:26:10;99568.22;;;23.77;59.83
29371;BME280;16357;52.188;7.838;2023-07-24T09:28:36;99575.09;;;23.84;59.46
29371;BME280;16357;52.188;7.838;2023-07-24T09:31:03;99570.44;;;23.90;58.30
29371;BME280;16357;52.188;7.838;2023-07-24T09:33:38;99563.31;;;23.99;58.37
29371;BME280;16357;52.188;7.838;2023-07-24T09:36:07;99565.22;;;24.04;58.10
29371;BME280;16357;52.188;7.838;2023-07-24T09:38:35;99562.47;;;24.09;57.78
29371;BME280;16357;52.188;7.838;2023-07-24T09:41:03;99571.56;;;24.15;56.96
29371;BME280;16357;52.188;7.838;2023-07-24T09:43:30;99566.31;;;24.18;56.05
29371;BME280;16357;52.188;7.838;2023-07-24T09:46:06;99557.28;;;24.23;55.46
29371;BME280;16357;52.188;7.838;2023-07-24T09:48:34;99567.16;;;24.24;55.78
29371;BME280;16357;52.188;7.838;2023-07-24T09:51:11;99558.38;;;24.27;56.30
29371;BME280;16357;52.188;7.838;2023-07-24T09:53:47;99569.88;;;24.29;55.84
29371;BME280;16357;52.188;7.838;2023-07-24T09:56:17;99566.03;;;24.30;56.17
29371;BME280;16357;52.188;7.838;2023-07-24T09:58:44;99563.03;;;24.31;56.15
29371;BME280;16357;52.188;7.838;2023-07-24T10:01:11;99564.41;;;24.34;55.77
29371;BME280;16357;52.188;7.838;2023-07-24T10:03:48;99566.31;;;24.39;56.31
29371;BME280;16357;52.188;7.838;2023-07-24T10:06:16;99555.59;;;24.42;55.73
29371;BME280;16357;52.188;7.838;2023-07-24T10:08:43;99552.63;;;24.49;56.10
29371;BME280;16357;52.188;7.838;2023-07-24T10:11:12;99546.25;;;24.59;55.99
29371;BME280;16357;52.188;7.838;2023-07-24T10:13:40;99535.00;;;24.70;55.38
29371;BME280;16357;52.188;7.838;2023-07-24T10:16:07;99540.97;;;24.83;55.48
29371;BME280;16357;52.188;7.838;2023-07-24T10:18:35;99535.44;;;24.98;54.98
29371;BME280;16357;52.188;7.838;2023-07-24T10:21:09;99526.56;;;25.11;54.21
29371;BME280;16357;52.188;7.838;2023-07-24T10:23:39;99525.47;;;25.23;53.39
29371;BME280;16357;52.188;7.838;2023-07-24T10:26:07;99529.25;;;25.32;53.13
29371;BME280;16357;52.188;7.838;2023-07-24T10:28:39;99513.81;;;25.41;52.18
29371;BME280;16357;52.188;7.838;2023-07-24T10:31:20;99524.47;;;25.48;52.99
29371;BME280;16357;52.188;7.838;2023-07-24T10:33:47;99511.81;;;25.52;51.95
29371;BME280;16357;52.188;7.838;2023-07-24T10:36:17;99512.06;;;25.55;51.40
29371;BME280;16357;52.188;7.838;2023-07-24T10:38:47;99515.94;;;25.54;50.83
29371;BME280;16357;52.188;7.838;2023-07-24T10:41:13;99518.72;;;25.49;50.45
29371;BME280;16357;52.188;7.838;2023-07-24T10:46:16;99522.91;;;25.36;50.99
29371;BME280;16357;52.188;7.838;2023-07-24T10:48:48;99518.53;;;25.30;51.73
29371;BME280;16357;52.188;7.838;2023-07-24T10:51:15;99520.22;;;25.26;51.57
29371;BME280;16357;52.188;7.838;2023-07-24T10:53:47;99527.34;;;25.27;52.11
29371;BME280;16357;52.188;7.838;2023-07-24T10:56:14;99521.84;;;25.27;51.54
29371;BME280;16357;52.188;7.838;2023-07-24T10:58:41;99525.13;;;25.29;51.60
29371;BME280;16357;52.188;7.838;2023-07-24T11:01:09;99531.72;;;25.33;51.66
29371;BME280;16357;52.188;7.838;2023-07-24T11:03:40;99538.28;;;25.37;51.32
29371;BME280;16357;52.188;7.838;2023-07-24T11:06:20;99529.75;;;25.39;51.57
29371;BME280;16357;52.188;7.838;2023-07-24T11:08:53;99530.84;;;25.38;51.57
29371;BME280;16357;52.188;7.838;2023-07-24T11:11:19;99529.50;;;25.35;51.41
29371;BME280;16357;52.188;7.838;2023-07-24T11:13:46;99520.75;;;25.33;51.46
29371;BME280;16357;52.188;7.838;2023-07-24T11:16:12;99524.31;;;25.29;50.92
29371;BME280;16357;52.188;7.838;2023-07-24T11:18:49;99521.03;;;25.27;51.66
29371;BME280;16357;52.188;7.838;2023-07-24T11:21:22;99509.81;;;25.23;52.04
29371;BME280;16357;52.188;7.838;2023-07-24T11:23:53;99503.75;;;25.26;52.20
29371;BME280;16357;52.188;7.838;2023-07-24T11:26:23;99496.03;;;25.33;52.01
29371;BME280;16357;52.188;7.838;2023-07-24T11:28:51;99494.84;;;25.45;52.42
29371;BME280;16357;52.188;7.838;2023-07-24T11:31:18;99486.53;;;25.55;51.50
29371;BME280;16357;52.188;7.838;2023-07-24T11:33:49;99490.03;;;25.66;50.62
29371;BME280;16357;52.188;7.838;2023-07-24T11:36:16;99483.63;;;25.75;50.37
29371;BME280;16357;52.188;7.838;2023-07-24T11:38:47;99482.19;;;25.83;50.40
29371;BME280;16357;52.188;7.838;2023-07-24T11:41:16;99478.53;;;25.93;50.72
29371;BME280;16357;52.188;7.838;2023-07-24T11:43:48;99472.13;;;26.02;50.37
29371;BME280;16357;52.188;7.838;2023-07-24T11:46:28;99456.34;;;26.13;50.68
29371;BME280;16357;52.188;7.838;2023-07-24T11:48:55;99466.72;;;26.21;50.63
29371;BME280;16357;52.188;7.838;2023-07-24T11:51:27;99464.06;;;26.35;50.29
29371;BME280;16357;52.188;7.838;2023-07-24T11:54:09;99473.56;;;26.48;50.56
29371;BME280;16357;52.188;7.838;2023-07-24T11:56:38;99472.88;;;26.61;49.99
29371;BME280;16357;52.188;7.838;2023-07-24T11:59:14;99481.53;;;26.74;49.21
29371;BME280;16357;52.188;7.838;2023-07-24T12:01:45;99482.22;;;26.84;48.42
29371;BME280;16357;52.188;7.838;2023-07-24T12:04:12;99487.38;;;26.91;47.89
29371;BME280;16357;52.188;7.838;2023-07-24T12:06:39;99483.72;;;26.96;47.69
29371;BME280;16357;52.188;7.838;2023-07-24T12:09:06;99477.94;;;26.97;47.27
29371;BME280;16357;52.188;7.838;2023-07-24T12:11:33;99477.13;;;26.97;47.73
29371;BME280;16357;52.188;7.838;2023-07-24T12:14:00;99471.91;;;26.95;46.99
29371;BME280;16357;52.188;7.838;2023-07-24T12:16:28;99472.50;;;26.92;47.14
29371;BME280;16357;52.188;7.838;2023-07-24T12:18:54;99468.69;;;26.88;47.57
29371;BME280;16357;52.188;7.838;2023-07-24T12:21:21;99469.28;;;26.85;47.94
29371;BME280;16357;52.188;7.838;2023-07-24T12:23:48;99475.09;;;26.83;47.89
29371;BME280;16357;52.188;7.838;2023-07-24T12:26:14;99477.00;;;26.83;47.57
29371;BME280;16357;52.188;7.838;2023-07-24T12:28:41;99481.16;;;26.80;47.70
29371;BME280;16357;52.188;7.838;2023-07-24T12:31:07;99483.69;;;26.77;47.72
29371;BME280;16357;52.188;7.838;2023-07-24T12:33:34;99471.41;;;26.69;47.80
29371;BME280;16357;52.188;7.838;2023-07-24T12:36:01;99477.56;;;26.61;47.47
29371;BME280;16357;52.188;7.838;2023-07-24T12:38:28;99470.22;;;26.51;47.76
29371;BME280;16357;52.188;7.838;2023-07-24T12:40:54;99482.47;;;26.40;48.13
29371;BME280;16357;52.188;7.838;2023-07-24T12:43:21;99475.44;;;26.28;48.25
29371;BME280;16357;52.188;7.838;2023-07-24T12:45:47;99481.63;;;26.15;48.69
29371;BME280;16357;52.188;7.838;2023-07-24T12:48:14;99496.06;;;26.02;48.53
29371;BME280;16357;52.188;7.838;2023-07-24T12:50:40;99497.81;;;25.88;48.93
29371;BME280;16357;52.188;7.838;2023-07-24T12:53:07;99496.28;;;25.71;49.10
29371;BME280;16357;52.188;7.838;2023-07-24T12:55:37;99493.38;;;25.57;49.67
29371;BME280;16357;52.188;7.838;2023-07-24T12:58:03;99491.00;;;25.40;50.03
29371;BME280;16357;52.188;7.838;2023-07-24T13:00:30;99483.41;;;25.27;49.91
29371;BME280;16357;52.188;7.838;2023-07-24T13:02:58;99494.19;;;25.13;50.96
29371;BME280;16357;52.188;7.838;2023-07-24T13:05:25;99473.66;;;25.01;50.95
29371;BME280;16357;52.188;7.838;2023-07-24T13:07:51;99459.50;;;24.88;51.36
29371;BME280;16357;52.188;7.838;2023-07-24T13:10:18;99457.88;;;24.77;51.84
29371;BME280;16357;52.188;7.838;2023-07-24T13:12:44;99460.41;;;24.68;52.42
29371;BME280;16357;52.188;7.838;2023-07-24T13:15:11;99470.84;;;24.61;52.93
29371;BME280;16357;52.188;7.838;2023-07-24T13:17:37;99471.16;;;24.55;52.83
29371;BME280;16357;52.188;7.838;2023-07-24T13:20:04;99475.56;;;24.50;52.97